createdAt,value
2022-11-10T00:02:13.962Z,6.85
2022-11-10T00:07:36.031Z,6.70
2022-11-10T00:13:02.474Z,10.85
2022-11-10T00:18:26.063Z,7.75
2022-11-10T00:23:48.593Z,7.40
2022-11-10T00:29:10.664Z,7.18
2022-11-10T00:34:34.838Z,8.82
2022-11-10T00:39:56.916Z,7.82
2022-11-10T00:45:19.126Z,8.40
2022-11-10T00:50:43.526Z,8.93
2022-11-10T00:56:06.163Z,11.07
2022-11-10T01:01:28.683Z,9.30
2022-11-10T01:06:53.192Z,9.25
2022-11-10T01:12:15.689Z,8.50
2022-11-10T01:17:38.079Z,9.93
2022-11-10T01:23:02.493Z,10.02
2022-11-10T01:28:25.189Z,10.77
2022-11-10T01:33:47.827Z,8.55
2022-11-10T01:39:11.327Z,7.75
2022-11-10T01:44:33.528Z,7.93
2022-11-10T01:49:56.080Z,9.50
2022-11-10T01:55:20.072Z,9.85
2022-11-10T02:00:43.200Z,8.70
2022-11-10T02:06:08.224Z,10.00
2022-11-10T02:11:33.964Z,8.98
2022-11-10T02:16:56.492Z,8.52
2022-11-10T02:22:20.305Z,7.93
2022-11-10T02:27:42.756Z,7.47
2022-11-10T02:33:04.971Z,8.52
2022-11-10T02:38:28.422Z,6.13
2022-11-10T02:43:50.845Z,7.78
2022-11-10T02:49:13.044Z,7.47
2022-11-10T02:54:36.919Z,6.90
2022-11-10T02:59:58.917Z,7.40
2022-11-10T03:05:20.987Z,9.40
2022-11-10T03:10:44.854Z,9.98
2022-11-10T03:16:07.735Z,7.30
2022-11-10T03:21:29.652Z,7.30
2022-11-10T03:26:53.176Z,7.75
2022-11-10T03:32:15.157Z,8.25
2022-11-10T03:37:37.604Z,7.38
2022-11-10T03:43:00.958Z,6.75
2022-11-10T03:48:23.051Z,7.88
2022-11-10T03:53:45.390Z,7.90
2022-11-10T03:59:08.881Z,6.07
2022-11-10T04:04:48.520Z,7.03
2022-11-10T04:10:11.414Z,6.75
2022-11-10T04:15:43.934Z,6.88
2022-11-10T04:21:06.784Z,6.50
2022-11-10T04:26:33.269Z,6.55
2022-11-10T04:31:58.601Z,9.60
2022-11-10T04:37:22.081Z,7.13
2022-11-10T04:42:44.348Z,6.32
2022-11-10T04:48:08.286Z,5.88
2022-11-10T04:53:30.604Z,7.68
2022-11-10T04:58:53.103Z,7.55
2022-11-10T05:04:16.481Z,6.75
2022-11-10T05:09:38.419Z,6.65
2022-11-10T05:15:00.437Z,8.55
2022-11-10T05:20:26.428Z,6.78
2022-11-10T05:25:48.823Z,8.07
2022-11-10T05:31:12.765Z,5.40
2022-11-10T05:36:36.420Z,6.53
2022-11-10T05:41:58.639Z,6.50
2022-11-10T05:47:20.636Z,5.53
2022-11-10T05:52:50.375Z,5.88
2022-11-10T05:58:12.869Z,5.80
2022-11-10T06:03:35.012Z,6.38
2022-11-10T06:08:59.456Z,7.78
2022-11-10T06:14:21.806Z,5.88
2022-11-10T06:19:44.095Z,5.72
2022-11-10T06:25:09.987Z,6.63
2022-11-10T06:30:35.913Z,7.07
2022-11-10T06:35:58.074Z,5.82
2022-11-10T06:41:25.320Z,6.10
2022-11-10T06:52:10.032Z,7.38
2022-11-10T06:57:40.002Z,5.65
2022-11-10T07:03:04.014Z,6.45
2022-11-10T07:08:26.380Z,5.90
2022-11-10T07:13:49.974Z,5.78
2022-11-10T07:19:11.849Z,11.60
2022-11-10T07:24:33.987Z,12.73
2022-11-10T07:29:57.381Z,11.02
2022-11-10T07:35:19.643Z,9.48
2022-11-10T07:40:41.769Z,7.53
2022-11-10T07:46:05.317Z,6.97
2022-11-10T07:51:28.119Z,10.30
2022-11-10T07:56:50.087Z,6.10
2022-11-10T08:02:13.962Z,6.93
2022-11-10T08:07:36.259Z,8.45
2022-11-10T08:13:01.313Z,10.32
2022-11-10T08:18:27.644Z,10.30
2022-11-10T08:23:53.195Z,15.95
2022-11-10T08:29:15.533Z,14.30
2022-11-10T08:34:39.040Z,13.25
2022-11-10T08:40:01.275Z,11.73
2022-11-10T08:45:23.319Z,9.10
2022-11-10T08:50:47.932Z,9.02
2022-11-10T08:56:10.096Z,9.18
2022-11-10T09:01:32.529Z,11.45
2022-11-10T09:06:57.924Z,8.98
2022-11-10T09:12:20.669Z,12.35
2022-11-10T09:17:43.238Z,7.57
2022-11-10T09:23:12.654Z,8.48
2022-11-10T09:28:34.963Z,8.75
2022-11-10T09:33:59.300Z,9.20
2022-11-10T09:39:22.632Z,8.35
2022-11-10T09:44:52.580Z,6.60
2022-11-10T09:50:23.325Z,10.23
2022-11-10T09:55:51.499Z,8.75
2022-11-10T10:01:32.151Z,10.88
2022-11-10T10:07:11.010Z,44.50
2022-11-10T10:13:09.538Z,27.98
2022-11-10T10:18:42.436Z,31.55
2022-11-10T10:24:11.380Z,30.58
2022-11-10T10:29:45.146Z,24.17
2022-11-10T10:35:10.494Z,27.63
2022-11-10T10:40:32.515Z,23.02
2022-11-10T10:46:09.626Z,17.88
2022-11-10T10:51:32.775Z,23.73
2022-11-10T10:57:06.723Z,21.02
2022-11-10T11:02:33.219Z,18.65
2022-11-10T11:07:58.300Z,20.13
2022-11-10T11:13:26.168Z,17.23
2022-11-10T11:18:49.980Z,13.93
2022-11-10T11:24:35.065Z,13.35
2022-11-10T11:30:21.552Z,12.68
2022-11-10T11:35:52.640Z,12.20
2022-11-10T11:41:30.365Z,12.95
2022-11-10T11:47:05.663Z,10.52
2022-11-10T11:52:38.609Z,12.32
2022-11-10T11:58:25.976Z,10.30
2022-11-10T12:04:32.761Z,11.68
2022-11-10T12:10:11.462Z,9.23
2022-11-10T12:15:48.431Z,10.48
2022-11-10T12:21:27.921Z,10.25
2022-11-10T12:26:59.788Z,9.65
2022-11-10T12:32:33.331Z,12.18
2022-11-10T12:38:01.693Z,8.55
2022-11-10T12:43:36.935Z,7.50
2022-11-10T12:49:19.808Z,9.25
2022-11-10T12:54:44.559Z,8.05
2022-11-10T13:00:27.923Z,10.43
2022-11-10T13:05:58.449Z,7.72
2022-11-10T13:11:29.322Z,8.57
2022-11-10T13:16:56.524Z,7.75
2022-11-10T13:22:40.720Z,8.52
2022-11-10T13:28:03.584Z,9.70
2022-11-10T13:33:38.170Z,9.35
2022-11-10T13:39:24.636Z,7.75
2022-11-10T13:44:47.959Z,5.77
2022-11-10T13:50:30.781Z,7.55
2022-11-10T13:56:11.926Z,6.03
2022-11-10T14:01:34.275Z,7.85
2022-11-10T14:06:59.707Z,6.70
2022-11-10T14:12:35.077Z,3.88
2022-11-10T14:17:58.489Z,5.35
2022-11-10T14:23:28.511Z,5.43
2022-11-10T14:28:51.457Z,5.93
2022-11-10T14:34:18.668Z,5.25
2022-11-10T14:39:43.540Z,6.13
2022-11-10T14:45:18.795Z,5.18
2022-11-10T14:50:43.139Z,4.43
2022-11-10T14:56:15.852Z,4.40
2022-11-10T15:01:42.428Z,5.53
2022-11-10T15:07:07.113Z,5.93
2022-11-10T15:12:30.880Z,5.72
2022-11-10T15:17:53.829Z,4.35
2022-11-10T15:23:33.788Z,4.38
2022-11-10T15:28:58.187Z,4.53
2022-11-10T15:34:44.465Z,5.25
2022-11-10T15:40:35.390Z,5.70
2022-11-10T15:46:03.088Z,6.53
2022-11-10T15:51:26.492Z,7.95
2022-11-10T15:56:49.255Z,6.70
2022-11-10T16:02:22.295Z,8.05
2022-11-10T16:07:44.653Z,7.63
2022-11-10T16:13:07.247Z,8.15
2022-11-10T16:18:43.529Z,11.38
2022-11-10T16:24:07.447Z,7.67
2022-11-10T16:29:29.780Z,8.13
2022-11-10T16:34:53.876Z,8.63
2022-11-10T16:40:48.669Z,9.85
2022-11-10T16:46:21.459Z,8.98
2022-11-10T16:51:48.758Z,8.65
2022-11-10T16:57:15.697Z,8.50
2022-11-10T17:02:39.817Z,17.85
2022-11-10T17:08:04.574Z,20.25
2022-11-10T17:13:27.088Z,20.05
2022-11-10T17:18:49.687Z,18.52
2022-11-10T17:24:15.499Z,15.40
2022-11-10T17:29:37.601Z,14.65
2022-11-10T17:34:59.616Z,10.48
2022-11-10T17:40:26.880Z,13.18
2022-11-10T17:45:49.369Z,12.73
2022-11-10T17:51:18.321Z,14.30
2022-11-10T17:56:41.718Z,30.95
2022-11-10T18:02:03.921Z,20.98
2022-11-10T18:07:26.182Z,11.25
2022-11-10T18:12:49.570Z,13.70
2022-11-10T18:18:14.285Z,10.68
2022-11-10T18:23:36.551Z,12.73
2022-11-10T18:28:59.900Z,9.35
2022-11-10T18:34:22.143Z,9.65
2022-11-10T18:39:45.265Z,11.07
2022-11-10T18:45:11.162Z,9.90
2022-11-10T18:50:34.071Z,10.98
2022-11-10T18:55:56.259Z,6.47
2022-11-10T19:01:19.856Z,9.57
2022-11-10T19:06:42.401Z,7.55
2022-11-10T19:12:05.512Z,8.68
2022-11-10T19:17:28.975Z,5.88
2022-11-10T19:22:50.992Z,7.35
2022-11-10T19:28:13.887Z,7.07
2022-11-10T19:33:40.722Z,6.07
2022-11-10T19:39:02.722Z,7.07
2022-11-10T19:44:24.654Z,5.22
2022-11-10T19:49:47.930Z,7.03
2022-11-10T19:55:10.149Z,5.10
2022-11-10T20:00:32.373Z,7.35
2022-11-10T20:06:02.193Z,4.47
2022-11-10T20:11:27.090Z,5.03
2022-11-10T20:16:49.183Z,6.07
2022-11-10T20:22:12.946Z,3.67
2022-11-10T20:27:35.339Z,5.95
2022-11-10T20:32:57.554Z,4.78
2022-11-10T20:38:20.919Z,4.45
2022-11-10T20:43:43.494Z,5.80
2022-11-10T20:49:05.648Z,5.03
2022-11-10T20:54:29.267Z,6.30
2022-11-10T20:59:51.553Z,4.78
2022-11-10T21:05:13.491Z,6.38
2022-11-10T21:10:37.106Z,4.90
2022-11-10T21:16:02.698Z,5.55
2022-11-10T21:21:34.038Z,5.90
2022-11-10T21:26:58.731Z,6.93
2022-11-10T21:32:20.633Z,4.70
2022-11-10T21:37:42.557Z,4.82
2022-11-10T21:43:06.079Z,5.22
2022-11-10T21:48:28.159Z,5.57
2022-11-10T21:53:50.585Z,6.28
2022-11-10T21:59:13.731Z,4.57
2022-11-10T22:04:36.040Z,6.72
2022-11-10T22:10:15.740Z,6.97
2022-11-10T22:16:13.655Z,5.65
2022-11-10T22:21:36.038Z,7.38
2022-11-10T22:27:01.119Z,4.53
2022-11-10T22:32:24.585Z,5.10
2022-11-10T22:37:46.736Z,6.03
2022-11-10T22:43:28.913Z,4.55
2022-11-10T22:48:52.699Z,5.28
2022-11-10T22:54:18.059Z,4.03
2022-11-10T22:59:40.474Z,7.22
2022-11-10T23:05:03.885Z,6.07
2022-11-10T23:10:26.166Z,5.70
2022-11-10T23:15:52.165Z,6.63
2022-11-10T23:21:19.342Z,6.82
2022-11-10T23:26:41.245Z,4.88
2022-11-10T23:32:03.398Z,7.82
2022-11-10T23:37:26.767Z,4.72
2022-11-10T23:42:48.984Z,5.72
2022-11-10T23:48:11.163Z,4.45
2022-11-10T23:53:35.323Z,5.32
2022-11-10T23:58:57.383Z,3.63
